Sisseton, SD

4:36 PM CST on February 08, 2016 (GMT -0600)
NonFedAWOS | | Change Station
CLOSE
Current Station
Personal Weather Station
Location: Sisseton, SD
Elevation: 1161 ft
Nearby Weather Stations
Active Advisory: Winter Weather Advisory Active Notice: Local Storm Report

Elev 1161 ft 45.67 °N, 97.00 °W | Updated 41 minutes ago

Partly Cloudy
Partly Cloudy
19 °F
Feels Like 2 °F
N
22
Wind Variable Wind from North
Gusts 32.0 mph

Today
High -- | Low -- °F
--% Chance of Precip.
Yesterday
High -- | Low -- °F
Precip. -- in
Pressure 30.17 in
Visibility 4.0 miles
Clouds Scattered Clouds 1400 ft
Scattered Clouds 2100 ft
Windchill 2 °F
Dew Point 10 °F
Humidity 68%
Rainfall in
Snow Depth Not available.
7:40 AM 5:43 PM
New Moon, 0% visible
METAR KETH 082216Z AUTO 33022G33KT 4SM -SN SCT014 SCT021 M09/M12 A3017 RMK AO2
Pressure 30.17 in
Visibility 4.0 miles
Clouds Scattered Clouds 1400 ft
Scattered Clouds 2100 ft
Windchill 2 °F
Dew Point 10 °F
Humidity 68%
Rainfall in
Snow Depth Not available.
7:40 AM 5:43 PM
New Moon, 0% visible
METAR KETH 082216Z AUTO 33022G33KT 4SM -SN SCT014 SCT021 M09/M12 A3017 RMK AO2

10-Day Weather Forecast

Almanac

Astronomy

Feb. 08, 2016 Rise Set
Actual Time
Civil Twilight
Nautical Twilight
Astronomical Twilight
Moon
Length of Visible Light
Length of Day
Tomorrow will be .
, % of the Moon is Illuminated

Today's Extremes

State Highs State Lows

Community

WunderPhotos

Upload Photos

1,891,518 photos uploaded!

WunderBlog® & News

Nearby

Air Quality

  Air Quality AQ Index Pollutant
Not available.

Snow Depth

Station Depth Elevation

Earthquake Activity

City Distance Mag. Time & Date
Minimum magnitude displayed is 2.5.

Coastal Water Temperatures

Place Temperature

Stations

Nearby Weather Stations

Station Location Temp. Windchill Dew Point Humidity Wind Precip. Elev Updated Type
                   

Watches & Warnings

Winter Weather Advisory
Issued: 9:18 AM CST Feb. 8, 2016 – National Weather Service

... Winter Weather Advisory now in effect until 6 PM CST this
evening...

The Winter Weather Advisory is now in effect until 6 PM CST this
evening.

* Expect areas of blowing snow to continue... diminishing around 6
PM. Visibility may drop below a half mile at times during snow
showers.

* Light additional accumulations expected.

* Travel will likely be impacted by occasional low visibility.

Precautionary/preparedness actions...

A Winter Weather Advisory for blowing snow means that
visibilities will be limited due to strong winds blowing snow
around. Use caution when traveling... especially in open areas.
The latest Road conditions can be obtained by calling 5 1 1.

Tdk